Time;durP1;ratioP1;P1;durP2;ratioP2;P2;SDS_P1;SDS_P2;PMS_P1;PMS_P2;Temp;Humidity;BMP_temperature;BMP_pressure;BME280_temperature;BME280_humidity;BME280_pressure;Samples;Min_cycle;Max_cycle;Signal;HPM_P1;HPM_P2
2023/02/05 00:01:34;;;;;;;;;11.00;10.00;;;;;-3.56;85.14;100073.38;4960023;28;102044;-70
2023/02/05 00:04:02;;;;;;;;;11.33;10.00;;;;;-3.53;85.76;100083.78;4961232;28;102355;-69
2023/02/05 00:06:29;;;;;;;;;9.67;9.00;;;;;-3.62;85.47;100087.75;4959303;28;102142;-70
2023/02/05 00:08:57;;;;;;;;;13.00;10.00;;;;;-3.65;84.62;100088.72;4955020;28;104151;-69
2023/02/05 00:11:24;;;;;;;;;10.67;9.00;;;;;-3.63;85.36;100105.38;4954912;28;102454;-69
2023/02/05 00:13:52;;;;;;;;;11.67;9.33;;;;;-3.65;87.00;100107.22;4957274;28;102548;-70
2023/02/05 00:16:21;;;;;;;;;12.00;9.00;;;;;-3.62;85.58;100099.16;4957881;28;102046;-70
2023/02/05 00:18:49;;;;;;;;;9.67;7.00;;;;;-3.60;86.39;100105.22;4952901;28;104178;-69
2023/02/05 00:21:17;;;;;;;;;12.00;9.67;;;;;-3.58;85.67;100113.09;4955453;28;102789;-70
2023/02/05 00:23:46;;;;;;;;;11.33;9.00;;;;;-3.58;85.57;100109.59;4959130;28;102396;-69
2023/02/05 00:26:13;;;;;;;;;13.33;11.00;;;;;-3.62;85.52;100112.38;4956554;28;102448;-69
2023/02/05 00:28:41;;;;;;;;;18.33;14.00;;;;;-3.63;86.35;100121.25;4951355;28;105574;-69
2023/02/05 00:31:14;;;;;;;;;12.67;8.67;;;;;-3.67;87.30;100093.25;4955857;28;102069;-68
2023/02/05 00:33:42;;;;;;;;;15.00;13.00;;;;;-3.58;87.46;100112.22;4955771;28;102030;-69
2023/02/05 00:36:10;;;;;;;;;16.67;14.33;;;;;-3.57;87.47;100120.09;4955468;28;102357;-69
2023/02/05 00:38:39;;;;;;;;;11.67;8.00;;;;;-3.55;87.86;100117.34;4952957;28;104168;-72
2023/02/05 00:41:06;;;;;;;;;13.33;8.67;;;;;-3.52;87.67;100128.66;4953122;28;102287;-69
2023/02/05 00:43:33;;;;;;;;;18.00;13.00;;;;;-3.55;87.24;100105.00;4955191;28;102428;-71
2023/02/05 00:46:00;;;;;;;;;19.00;13.00;;;;;-3.48;87.65;100114.34;4954470;28;102080;-68
2023/02/05 00:48:27;;;;;;;;;16.00;10.00;;;;;-3.46;88.05;100111.59;4954527;28;104043;-69
2023/02/05 00:50:55;;;;;;;;;16.00;12.00;;;;;-3.41;86.59;100099.03;4953625;28;102389;-69
2023/02/05 00:53:23;;;;;;;;;13.33;11.00;;;;;-3.38;87.91;100098.88;4956918;28;102018;-69
2023/02/05 00:55:50;;;;;;;;;10.00;9.33;;;;;-3.37;87.41;100097.94;4948303;28;102324;-68
2023/02/05 00:58:17;;;;;;;;;7.67;4.67;;;;;-3.35;86.83;100096.94;4951522;28;104189;-69
2023/02/05 01:00:45;;;;;;;;;11.67;9.33;;;;;-3.28;86.57;100094.81;4953685;28;102191;-70
2023/02/05 01:03:12;;;;;;;;;12.33;10.00;;;;;-3.25;87.34;100095.53;4951244;28;102080;-69
2023/02/05 01:05:40;;;;;;;;;6.00;4.00;;;;;-3.17;85.73;100092.50;4953758;28;102084;-70
2023/02/05 01:08:08;;;;;;;;;8.67;7.67;;;;;-3.23;86.42;100109.53;4953250;28;104020;-69
2023/02/05 01:10:36;;;;;;;;;8.33;7.00;;;;;-3.40;86.34;100087.50;4951126;28;102055;-69
2023/02/05 01:13:04;;;;;;;;;12.33;10.00;;;;;-3.34;86.65;100095.16;4959715;28;102192;-69
2023/02/05 01:15:31;;;;;;;;;6.67;6.67;;;;;-3.27;87.08;100096.53;4955016;28;102543;-69
2023/02/05 01:17:59;;;;;;;;;9.33;7.33;;;;;-3.32;85.35;100087.97;4951176;28;102932;-69
2023/02/05 01:20:27;;;;;;;;;10.00;8.67;;;;;-3.31;86.15;100098.50;4954963;28;102167;-69
2023/02/05 01:22:54;;;;;;;;;13.33;10.33;;;;;-3.27;86.23;100099.19;4955024;28;101968;-69
2023/02/05 01:25:21;;;;;;;;;9.00;8.33;;;;;-3.33;86.75;100097.69;4953345;28;102292;-69
2023/02/05 01:27:48;;;;;;;;;11.33;10.00;;;;;-3.35;86.92;100114.59;4952324;28;104315;-70
2023/02/05 01:30:15;;;;;;;;;14.00;11.00;;;;;-3.32;85.74;100115.28;4955821;28;102151;-69
2023/02/05 01:32:42;;;;;;;;;11.00;10.00;;;;;-3.34;84.18;100116.31;4951710;28;105327;-69
2023/02/05 01:35:10;;;;;;;;;15.00;8.00;;;;;-3.42;82.68;100113.19;4959655;28;102302;-68
2023/02/05 01:37:36;;;;;;;;;4.00;2.67;;;;;-3.29;80.74;100119.56;4954396;28;104080;-68
2023/02/05 01:40:04;;;;;;;;;7.67;7.00;;;;;-3.30;79.15;100117.88;4953639;28;102233;-69
2023/02/05 01:42:32;;;;;;;;;7.00;5.67;;;;;-3.29;78.00;100124.88;4954793;28;102341;-68
2023/02/05 01:45:21;;;;;;;;;7.00;7.00;;;;;-3.24;76.88;100120.19;4950710;28;101978;-69
2023/02/05 01:47:53;;;;;;;;;8.67;7.33;;;;;-3.23;79.07;100122.75;4951379;28;108424;-70
2023/02/05 01:50:26;;;;;;;;;6.00;4.67;;;;;-3.19;77.05;100131.38;4954662;28;102529;-69
2023/02/05 01:52:56;;;;;;;;;6.33;6.33;;;;;-3.25;77.87;100121.13;4951288;28;103225;-69
2023/02/05 01:55:24;;;;;;;;;4.00;2.00;;;;;-3.29;78.82;100130.16;4954561;28;102086;-69
2023/02/05 01:57:52;;;;;;;;;8.00;5.67;;;;;-3.41;76.00;100125.47;4950234;28;104237;-68
2023/02/05 02:00:21;;;;;;;;;7.00;6.00;;;;;-3.54;76.91;100130.50;4952010;28;102169;-69
2023/02/05 02:02:48;;;;;;;;;8.00;4.00;;;;;-3.45;77.72;100129.19;4944308;28;102148;-71
2023/02/05 02:05:17;;;;;;;;;2.00;2.00;;;;;-3.48;77.87;100138.16;4951591;28;103173;-68
2023/02/05 02:07:53;;;;;;;;;1.00;1.00;;;;;-3.56;78.76;100124.44;4948915;28;108689;-68
2023/02/05 02:10:38;;;;;;;;;2.00;1.00;;;;;-3.56;77.98;100126.22;4954223;28;102356;-68
2023/02/05 02:13:39;;;;;;;;;1.00;1.00;;;;;-3.60;78.16;100126.38;4941682;28;103239;-68
2023/02/05 02:16:32;;;;;;;;;1.00;0.67;;;;;-3.67;78.39;100132.91;4953129;28;102283;-68
2023/02/05 02:19:26;;;;;;;;;0.33;0.00;;;;;-3.68;80.30;100133.81;4949726;28;107807;-68
2023/02/05 02:22:24;;;;;;;;;1.00;0.00;;;;;-3.78;79.23;100137.81;4943681;28;103276;-68
2023/02/05 02:25:12;;;;;;;;;2.00;1.00;;;;;-3.87;80.30;100132.97;4948044;28;102204;-69
2023/02/05 02:27:51;;;;;;;;;1.00;1.00;;;;;-3.89;79.83;100132.22;4958430;28;102252;-68
2023/02/05 02:30:30;;;;;;;;;1.00;0.00;;;;;-3.91;80.36;100131.41;4953277;28;108535;-68
2023/02/05 02:33:06;;;;;;;;;0.00;0.00;;;;;-3.97;80.94;100139.66;4951102;28;102433;-68
2023/02/05 02:35:43;;;;;;;;;0.00;0.00;;;;;-4.03;80.80;100137.28;4953078;28;101930;-67
2023/02/05 02:38:48;;;;;;;;;0.00;0.00;;;;;-4.10;81.50;100138.53;4949257;28;102382;-67
2023/02/05 02:41:27;;;;;;;;;0.00;0.00;;;;;-4.20;81.71;100140.72;4949155;28;108468;-69
2023/02/05 02:44:03;;;;;;;;;1.00;0.33;;;;;-4.26;81.29;100142.78;4951629;28;102411;-68
2023/02/05 02:46:43;;;;;;;;;0.00;0.00;;;;;-4.31;81.94;100148.28;4950375;28;102427;-67
2023/02/05 02:49:16;;;;;;;;;0.00;0.00;;;;;-4.35;81.95;100151.13;4953172;28;102145;-67
2023/02/05 02:51:45;;;;;;;;;0.00;0.00;;;;;-4.40;82.55;100145.19;4946632;28;103947;-67
2023/02/05 02:54:17;;;;;;;;;4.00;2.00;;;;;-4.51;82.99;100151.84;4953355;28;103331;-68
2023/02/05 02:56:46;;;;;;;;;0.00;0.00;;;;;-4.50;83.92;100155.31;4952348;28;102674;-67
2023/02/05 02:59:18;;;;;;;;;6.00;4.00;;;;;-4.61;84.11;100149.66;4959539;28;102158;-67
2023/02/05 03:01:50;;;;;;;;;6.00;4.00;;;;;-4.62;84.53;100148.81;4952268;28;103791;-66
2023/02/05 03:04:42;;;;;;;;;6.33;3.00;;;;;-4.61;85.05;100155.81;4954961;28;103366;-68
2023/02/05 03:07:15;;;;;;;;;4.00;3.00;;;;;-4.66;84.84;100152.50;4952728;28;102255;-67
2023/02/05 03:09:55;;;;;;;;;6.00;4.00;;;;;-4.71;84.99;100162.41;4951085;28;102268;-67
2023/02/05 03:12:22;;;;;;;;;9.00;8.33;;;;;-4.80;86.19;100149.63;4946298;28;108569;-66
2023/02/05 03:14:50;;;;;;;;;12.00;9.33;;;;;-4.87;85.71;100145.53;4956571;28;102108;-67
2023/02/05 03:17:18;;;;;;;;;10.33;8.67;;;;;-4.84;86.46;100158.59;4951035;28;102174;-68
2023/02/05 03:19:51;;;;;;;;;18.00;13.00;;;;;-4.95;86.10;100145.84;4948060;28;102013;-67
2023/02/05 03:22:18;;;;;;;;;19.67;14.33;;;;;-4.96;86.78;100143.31;4954527;28;108703;-68
2023/02/05 03:24:45;;;;;;;;;14.33;9.00;;;;;-4.83;86.43;100160.31;4952521;28;102551;-68
2023/02/05 03:27:12;;;;;;;;;14.33;13.00;;;;;-4.90;87.15;100143.03;4952482;28;102318;-67
2023/02/05 03:29:43;;;;;;;;;9.67;9.67;;;;;-4.84;86.45;100158.59;4954322;28;102196;-67
2023/02/05 03:32:29;;;;;;;;;4.00;3.33;;;;;-4.76;86.66;100156.47;4953413;28;104220;-68
2023/02/05 03:35:15;;;;;;;;;13.00;7.67;;;;;-4.76;86.16;100161.75;4956637;28;102242;-68
2023/02/05 03:38:00;;;;;;;;;6.00;6.00;;;;;-4.75;85.88;100152.91;4953684;28;102208;-68
2023/02/05 03:40:42;;;;;;;;;6.00;4.00;;;;;-4.74;85.62;100154.63;4956739;28;102325;-68
2023/02/05 03:43:09;;;;;;;;;4.00;4.00;;;;;-4.75;85.34;100152.06;4953657;28;104071;-68
2023/02/05 03:45:58;;;;;;;;;3.00;2.33;;;;;-4.75;85.55;100155.56;4955937;28;102736;-68
2023/02/05 03:48:34;;;;;;;;;1.67;1.67;;;;;-4.82;85.50;100151.47;4951058;28;102365;-68
2023/02/05 03:51:21;;;;;;;;;5.33;1.00;;;;;-4.86;86.19;100151.69;4956126;28;103134;-67
2023/02/05 03:54:26;;;;;;;;;3.00;2.33;;;;;-4.98;86.24;100130.19;4952947;28;107827;-68
2023/02/05 03:57:03;;;;;;;;;1.00;1.00;;;;;-4.89;85.30;100152.66;4953681;28;102301;-68
2023/02/05 03:59:32;;;;;;;;;3.00;1.00;;;;;-4.97;85.44;100146.88;4955637;28;102098;-66
2023/02/05 04:02:01;;;;;;;;;1.00;0.00;;;;;-5.05;84.62;100146.34;4953129;28;102664;-67
2023/02/05 04:04:29;;;;;;;;;1.00;1.00;;;;;-5.19;84.52;100140.78;4954350;28;104324;-67
2023/02/05 04:06:56;;;;;;;;;0.33;0.33;;;;;-5.33;84.69;100122.06;4955638;28;101956;-67
2023/02/05 04:09:23;;;;;;;;;3.33;1.00;;;;;-5.36;86.40;100152.06;4954408;28;102277;-68
2023/02/05 04:11:50;;;;;;;;;6.00;3.00;;;;;-5.51;87.46;100145.63;4960388;28;102199;-67
2023/02/05 04:14:17;;;;;;;;;3.00;1.67;;;;;-5.60;88.77;100151.28;4952349;28;108610;-67
2023/02/05 04:16:44;;;;;;;;;3.00;2.33;;;;;-5.62;88.87;100153.09;4953031;28;103244;-67
2023/02/05 04:19:12;;;;;;;;;6.00;4.00;;;;;-5.64;88.36;100160.22;4955468;28;102281;-67
2023/02/05 04:21:39;;;;;;;;;3.00;3.00;;;;;-5.69;88.19;100150.78;4954767;28;102115;-66
2023/02/05 04:24:06;;;;;;;;;2.33;1.00;;;;;-5.67;88.75;100149.78;4954048;28;104158;-66
2023/02/05 04:26:33;;;;;;;;;6.00;4.00;;;;;-5.68;89.08;100157.78;4955255;28;102282;-66
2023/02/05 04:29:00;;;;;;;;;2.33;2.33;;;;;-6.00;89.10;100098.53;4955527;28;102237;-67
2023/02/05 04:31:27;;;;;;;;;1.67;0.00;;;;;-5.73;89.84;100160.59;4956521;28;102639;-67
2023/02/05 04:33:54;;;;;;;;;3.00;1.00;;;;;-5.74;89.56;100165.91;4950503;28;104207;-66
2023/02/05 04:36:21;;;;;;;;;0.33;0.00;;;;;-5.76;89.34;100150.16;4957258;28;105956;-68
2023/02/05 04:38:48;;;;;;;;;5.33;0.33;;;;;-5.79;89.57;100167.88;4957055;28;102221;-68
2023/02/05 04:41:15;;;;;;;;;0.00;0.00;;;;;-5.90;89.54;100166.53;4955549;28;102312;-66
2023/02/05 04:43:43;;;;;;;;;1.00;1.00;;;;;-5.91;90.54;100161.34;4954922;28;104279;-66
2023/02/05 04:46:10;;;;;;;;;1.00;1.00;;;;;-5.99;89.76;100148.47;4958126;28;103035;-67
2023/02/05 04:48:38;;;;;;;;;0.33;0.33;;;;;-5.91;88.70;100169.25;4954084;28;102306;-67
2023/02/05 04:51:11;;;;;;;;;1.00;0.00;;;;;-5.94;89.21;100171.97;4950824;28;102192;-66
2023/02/05 04:53:38;;;;;;;;;1.00;1.00;;;;;-6.00;88.69;100164.34;4952362;28;104238;-67
2023/02/05 04:56:11;;;;;;;;;1.00;1.00;;;;;-6.03;89.24;100180.25;4955260;28;102370;-65
2023/02/05 04:58:39;;;;;;;;;1.00;1.00;;;;;-6.19;88.29;100166.81;4953635;28;102106;-66
2023/02/05 05:01:14;;;;;;;;;2.33;1.00;;;;;-6.26;87.68;100175.00;4957847;28;102049;-66
2023/02/05 05:03:41;;;;;;;;;1.00;1.00;;;;;-6.28;86.61;100192.63;4953066;28;104117;-67
2023/02/05 05:06:09;;;;;;;;;1.00;0.00;;;;;-6.38;86.88;100195.59;4952789;28;102208;-66
2023/02/05 05:08:37;;;;;;;;;0.00;0.00;;;;;-6.37;88.28;100199.94;4953141;28;105494;-66
2023/02/05 05:11:09;;;;;;;;;3.00;1.00;;;;;-6.37;89.28;100199.94;4954515;28;102069;-67
2023/02/05 05:13:37;;;;;;;;;1.00;1.00;;;;;-6.34;90.55;100207.72;4956544;28;104125;-66
2023/02/05 05:16:04;;;;;;;;;1.00;0.33;;;;;-6.39;89.04;100206.16;4955411;28;106829;-66
2023/02/05 05:18:31;;;;;;;;;1.00;1.00;;;;;-6.49;88.03;100204.81;4958161;28;102245;-65
2023/02/05 05:20:58;;;;;;;;;1.00;0.00;;;;;-6.55;87.71;100205.88;4959227;28;102027;-66
2023/02/05 05:23:26;;;;;;;;;3.00;1.00;;;;;-6.59;86.77;100213.94;4948066;28;104288;-65
2023/02/05 05:25:53;;;;;;;;;0.00;0.00;;;;;-6.67;86.67;100219.47;4946910;28;102040;-67
2023/02/05 05:28:20;;;;;;;;;3.00;3.00;;;;;-6.72;87.01;100229.28;4956476;28;102089;-66
2023/02/05 05:30:48;;;;;;;;;0.00;0.00;;;;;-6.73;88.71;100227.56;4955504;28;102529;-64
2023/02/05 05:33:15;;;;;;;;;0.33;0.33;;;;;-6.77;89.15;100232.09;4958782;28;104022;-66
2023/02/05 05:35:44;;;;;;;;;0.00;0.00;;;;;-6.79;88.13;100227.78;4951708;28;103946;-66
2023/02/05 05:38:11;;;;;;;;;3.00;1.00;;;;;-6.86;90.60;100236.78;4953015;28;101958;-66
2023/02/05 05:46:10;;;;;;;;;1.00;1.00;;;;;-6.91;92.25;100243.97;4955225;28;102323;-66
2023/02/05 05:48:37;;;;;;;;;1.00;1.00;;;;;-6.94;92.85;100241.47;4951938;28;102045;-66
2023/02/05 05:51:04;;;;;;;;;3.00;1.00;;;;;-6.97;92.28;100242.41;4955270;28;102318;-66
2023/02/05 05:53:31;;;;;;;;;1.00;0.00;;;;;-6.96;92.30;100251.16;4950862;28;104003;-66
2023/02/05 05:55:59;;;;;;;;;1.50;1.50;;;;;-7.05;92.53;100239.19;4953365;28;102333;-66
2023/02/05 05:58:26;;;;;;;;;3.00;1.00;;;;;-7.01;93.02;100247.81;4953032;28;103602;-65
2023/02/05 06:00:53;;;;;;;;;3.00;1.00;;;;;-7.26;91.25;100211.88;4955973;28;102514;-68
2023/02/05 06:03:21;;;;;;;;;0.67;0.00;;;;;-7.05;91.24;100256.72;4956454;28;105279;-65
2023/02/05 06:05:48;;;;;;;;;0.00;0.00;;;;;-7.02;91.03;100261.88;4953593;28;102255;-65
2023/02/05 06:08:15;;;;;;;;;1.00;0.00;;;;;-7.09;91.19;100255.09;4948463;28;101870;-66
2023/02/05 06:10:42;;;;;;;;;0.25;0.00;;;;;-7.09;89.75;100260.34;4957081;28;102159;-66
2023/02/05 06:13:09;;;;;;;;;0.00;0.00;;;;;-7.05;90.57;100267.22;4960476;28;104015;-66
2023/02/05 06:15:37;;;;;;;;;2.50;1.50;;;;;-7.10;89.51;100263.88;4955146;28;102587;-66
2023/02/05 06:18:04;;;;;;;;;3.00;3.00;;;;;-7.13;91.23;100274.50;4953423;28;102146;-65
2023/02/05 06:20:31;;;;;;;;;3.00;1.50;;;;;-7.13;91.20;100269.25;4963679;28;102263;-65
2023/02/05 06:22:58;;;;;;;;;4.00;1.00;;;;;-7.20;90.15;100257.25;4956445;28;103984;-66
2023/02/05 06:25:25;;;;;;;;;3.00;1.00;;;;;-7.09;90.99;100269.09;4966127;28;102323;-66
2023/02/05 06:27:52;;;;;;;;;0.00;0.00;;;;;-7.04;89.94;100287.34;4963357;28;101950;-66
2023/02/05 06:30:19;;;;;;;;;9.00;6.50;;;;;-7.24;93.50;100241.56;4957999;28;102335;-66
2023/02/05 06:32:46;;;;;;;;;9.25;6.75;;;;;-6.85;94.34;100293.72;4967972;28;104083;-66
2023/02/05 06:35:13;;;;;;;;;12.25;7.00;;;;;-6.78;95.10;100295.22;4956470;28;102372;-66
2023/02/05 06:37:40;;;;;;;;;11.00;6.75;;;;;-6.69;94.36;100300.19;4957006;28;102420;-66
2023/02/05 06:40:16;;;;;;;;;15.25;9.25;;;;;-6.64;93.78;100298.25;4954784;28;102569;-65
2023/02/05 06:42:44;;;;;;;;;19.75;14.75;;;;;-6.62;93.36;100299.09;4953116;28;104204;-66
2023/02/05 06:45:11;;;;;;;;;15.25;9.75;;;;;-6.56;94.53;100298.84;4951141;28;103514;-66
2023/02/05 06:47:38;;;;;;;;;13.75;12.50;;;;;-6.49;94.66;100297.75;4953166;28;102389;-67
2023/02/05 06:50:06;;;;;;;;;12.25;9.00;;;;;-6.38;93.81;100292.09;4946557;28;102296;-66
2023/02/05 06:52:33;;;;;;;;;12.00;6.67;;;;;-6.32;93.11;100292.75;4950605;28;104261;-66
2023/02/05 06:55:00;;;;;;;;;10.67;6.67;;;;;-6.26;92.05;100288.19;4951940;28;102513;-66
2023/02/05 06:57:27;;;;;;;;;3.25;3.00;;;;;-6.18;92.74;100287.00;4954870;28;102141;-67
2023/02/05 06:59:54;;;;;;;;;0.00;0.00;;;;;-6.13;91.37;100286.81;4957244;28;101957;-68
2023/02/05 07:02:21;;;;;;;;;14.25;12.50;;;;;-6.28;91.13;100282.09;4955552;28;104049;-66
2023/02/05 07:04:48;;;;;;;;;10.75;7.50;;;;;-6.12;91.06;100293.81;4958026;28;103352;-67
2023/02/05 07:07:16;;;;;;;;;14.00;13.00;;;;;-6.12;90.92;100294.66;4951720;28;102298;-67
2023/02/05 07:09:43;;;;;;;;;15.00;13.25;;;;;-6.11;90.40;100301.63;4951861;28;102354;-68
2023/02/05 07:12:10;;;;;;;;;18.50;16.25;;;;;-6.12;91.56;100294.66;4951856;28;104116;-66
2023/02/05 07:14:38;;;;;;;;;22.00;21.00;;;;;-6.19;91.77;100302.81;4954827;28;102341;-67
2023/02/05 07:17:06;;;;;;;;;23.25;19.00;;;;;-6.09;91.62;100318.25;4959836;28;102032;-67
2023/02/05 07:19:34;;;;;;;;;20.25;16.25;;;;;-5.96;92.16;100316.03;4959460;28;105265;-66
2023/02/05 07:22:02;;;;;;;;;14.00;10.00;;;;;-5.86;90.97;100317.38;4960267;28;104195;-66
2023/02/05 07:24:29;;;;;;;;;17.75;17.75;;;;;-5.82;90.97;100308.44;4955798;28;102355;-67
2023/02/05 07:26:56;;;;;;;;;23.75;20.25;;;;;-5.89;90.58;100325.41;4952409;28;102298;-67
2023/02/05 07:29:23;;;;;;;;;20.00;18.25;;;;;-5.79;90.82;100315.34;4960820;28;110677;-67
2023/02/05 07:31:51;;;;;;;;;12.25;11.00;;;;;-5.80;90.24;100311.00;4953254;28;108554;-67
2023/02/05 07:34:18;;;;;;;;;27.25;21.25;;;;;-5.78;89.31;100327.63;4950395;28;102329;-67
2023/02/05 07:36:49;;;;;;;;;25.00;20.00;;;;;-5.78;90.69;100333.75;4956293;28;101920;-67
2023/02/05 07:39:16;;;;;;;;;10.00;0.00;;;;;-5.79;88.85;100339.06;4954408;28;102302;-67
2023/02/05 07:41:43;;;;;;;;;17.50;14.00;;;;;-5.60;90.02;100340.97;4947807;28;105794;-67
2023/02/05 07:44:11;;;;;;;;;12.50;8.50;;;;;-5.65;88.82;100331.50;4951622;28;103708;-67
2023/02/05 07:46:38;;;;;;;;;17.00;12.67;;;;;-5.43;89.46;100349.09;4951155;28;103231;-66
2023/02/05 07:49:05;;;;;;;;;14.33;12.67;;;;;-5.37;87.39;100352.41;4952015;28;102345;-67
2023/02/05 07:51:33;;;;;;;;;15.33;13.67;;;;;-5.32;87.47;100350.47;4944476;28;103997;-67
2023/02/05 07:54:06;;;;;;;;;16.00;13.00;;;;;-5.24;87.85;100340.47;4953198;28;102358;-67
2023/02/05 07:56:33;;;;;;;;;15.33;10.67;;;;;-5.15;87.29;100340.13;4953434;28;102358;-68
2023/02/05 07:59:01;;;;;;;;;12.33;9.67;;;;;-5.07;86.56;100338.03;4953729;28;102835;-67
2023/02/05 08:01:28;;;;;;;;;17.67;13.67;;;;;-5.10;86.35;100346.94;4954009;28;104144;-67
2023/02/05 08:03:55;;;;;;;;;9.00;6.33;;;;;-5.00;86.94;100343.00;4950713;28;102181;-68
2023/02/05 08:06:22;;;;;;;;;15.67;12.67;;;;;-4.87;85.53;100346.03;4955551;28;102399;-67
2023/02/05 08:08:49;;;;;;;;;12.00;9.00;;;;;-4.82;85.03;100351.97;4952310;28;102458;-68
2023/02/05 08:11:17;;;;;;;;;12.67;10.00;;;;;-4.78;84.12;100353.56;4950442;28;104236;-69
2023/02/05 08:13:45;;;;;;;;;16.67;12.33;;;;;-4.56;84.63;100354.41;4950901;28;102600;-68
2023/02/05 08:16:16;;;;;;;;;12.67;10.00;;;;;-4.54;82.76;100371.00;4953036;28;102905;-68
2023/02/05 08:18:48;;;;;;;;;10.67;9.00;;;;;-4.46;82.32;100364.56;4959528;28;102074;-68
2023/02/05 08:21:16;;;;;;;;;9.67;7.67;;;;;-4.39;81.94;100385.38;4960117;28;104322;-68
2023/02/05 08:23:44;;;;;;;;;15.67;11.33;;;;;-4.54;81.47;100375.44;4956513;28;102208;-69
2023/02/05 08:26:12;;;;;;;;;15.00;10.00;;;;;-4.47;82.12;100389.25;4952151;28;103383;-69
2023/02/05 08:28:39;;;;;;;;;12.67;11.33;;;;;-4.47;81.48;100394.53;4954821;28;102447;-69
2023/02/05 08:31:15;;;;;;;;;13.00;9.33;;;;;-4.30;82.60;100387.63;4956203;28;104142;-68
2023/02/05 08:33:42;;;;;;;;;12.00;10.00;;;;;-4.23;80.78;100398.75;4955388;28;102415;-69
2023/02/05 08:36:10;;;;;;;;;10.67;9.00;;;;;-4.27;80.84;100399.81;4954322;28;105404;-69
2023/02/05 08:38:37;;;;;;;;;12.67;9.00;;;;;-4.23;78.95;100404.91;4950174;28;102033;-68
2023/02/05 08:41:11;;;;;;;;;7.00;6.33;;;;;-4.32;76.52;100385.97;4953472;28;104041;-69
2023/02/05 08:43:43;;;;;;;;;10.00;7.00;;;;;-4.35;77.89;100400.16;4956429;28;102616;-69
2023/02/05 08:46:12;;;;;;;;;9.00;5.33;;;;;-4.39;77.88;100384.50;4954325;28;101979;-69
2023/02/05 08:48:40;;;;;;;;;12.00;6.00;;;;;-4.36;76.65;100392.28;4956826;28;102092;-70
2023/02/05 08:51:11;;;;;;;;;7.00;6.00;;;;;-4.34;76.06;100393.09;4950901;28;104149;-69
2023/02/05 08:53:39;;;;;;;;;12.67;9.00;;;;;-4.32;75.75;100400.00;4945805;28;102424;-70
2023/02/05 08:56:09;;;;;;;;;7.67;6.00;;;;;-4.42;77.43;100398.69;4945793;28;102476;-69
2023/02/05 08:58:38;;;;;;;;;7.67;6.00;;;;;-4.44;77.53;100389.09;4952505;28;102145;-69
2023/02/05 09:01:12;;;;;;;;;13.67;10.00;;;;;-4.62;76.10;100402.13;4944635;28;104000;-68
2023/02/05 09:03:39;;;;;;;;;11.00;9.33;;;;;-4.45;78.32;100403.22;4952846;28;103052;-68
2023/02/05 09:06:08;;;;;;;;;13.00;12.00;;;;;-4.36;77.68;100414.25;4949618;28;102241;-67
2023/02/05 09:08:35;;;;;;;;;13.00;10.00;;;;;-4.50;78.66;100398.13;4959742;28;102221;-69
2023/02/05 09:11:03;;;;;;;;;11.33;9.33;;;;;-4.50;77.56;100400.78;4950435;28;103991;-69
2023/02/05 09:13:31;;;;;;;;;21.00;12.00;;;;;-4.55;77.81;100400.13;4957849;28;102368;-70
2023/02/05 09:15:58;;;;;;;;;22.00;16.00;;;;;-4.26;78.65;100414.75;4954789;28;102317;-69
2023/02/05 09:18:25;;;;;;;;;14.33;12.67;;;;;-4.38;77.30;100412.63;4951808;28;104618;-70
2023/02/05 09:20:53;;;;;;;;;18.00;16.00;;;;;-4.59;77.20;100419.63;4957621;28;104503;-69
2023/02/05 09:23:20;;;;;;;;;18.00;13.67;;;;;-4.53;77.98;100422.03;4958487;28;102253;-69
2023/02/05 09:25:48;;;;;;;;;14.33;12.67;;;;;-4.77;77.75;100412.47;4955761;28;101979;-68
2023/02/05 09:28:15;;;;;;;;;9.00;9.00;;;;;-4.60;77.74;100410.00;4953717;28;105536;-70
2023/02/05 09:30:44;;;;;;;;;10.00;9.00;;;;;-4.47;76.95;100420.91;4954049;28;104551;-69
2023/02/05 09:33:13;;;;;;;;;9.67;9.00;;;;;-4.38;76.13;100421.41;4955652;28;102169;-70
2023/02/05 09:35:41;;;;;;;;;11.00;9.33;;;;;-4.48;76.24;100413.91;4967896;28;105511;-69
2023/02/05 09:38:08;;;;;;;;;17.67;13.00;;;;;-4.41;76.62;100425.97;4951469;28;104869;-69
2023/02/05 09:40:41;;;;;;;;;15.00;12.33;;;;;-4.45;76.38;100429.63;4959745;28;104002;-69
2023/02/05 09:43:42;;;;;;;;;12.67;7.00;;;;;-4.62;76.51;100432.94;4954418;28;102409;-69
2023/02/05 09:46:21;;;;;;;;;15.00;12.00;;;;;-4.77;78.55;100412.47;4952023;28;102043;-68
2023/02/05 09:48:53;;;;;;;;;16.67;12.33;;;;;-4.69;78.56;100427.06;4952231;28;103726;-69
2023/02/05 09:51:49;;;;;;;;;21.33;16.00;;;;;-4.82;78.31;100436.41;4959745;28;108595;-68
2023/02/05 09:54:23;;;;;;;;;16.00;13.00;;;;;-4.88;80.40;100443.66;4940587;28;102498;-69
2023/02/05 09:56:53;;;;;;;;;12.33;12.33;;;;;-5.03;80.60;100430.16;4953587;28;104624;-70
2023/02/05 09:59:26;;;;;;;;;15.33;12.67;;;;;-4.93;82.36;100419.25;4950321;28;103086;-68
2023/02/05 10:02:15;;;;;;;;;16.00;13.00;;;;;-4.80;81.51;100418.72;4949922;28;108522;-70
2023/02/05 10:04:42;;;;;;;;;15.67;13.00;;;;;-4.73;82.18;100440.44;4949924;28;103323;-68
2023/02/05 10:07:16;;;;;;;;;14.33;9.67;;;;;-4.88;83.16;100417.28;4953047;28;102117;-69
2023/02/05 10:09:53;;;;;;;;;16.00;10.67;;;;;-4.82;84.28;100439.03;4951117;28;103559;-69
2023/02/05 10:12:46;;;;;;;;;12.00;11.33;;;;;-4.90;82.38;100433.16;4953880;28;109076;-69
2023/02/05 10:15:44;;;;;;;;;13.67;11.33;;;;;-4.93;83.93;100420.09;4946849;28;102608;-69
2023/02/05 10:18:17;;;;;;;;;13.67;12.00;;;;;-4.84;83.79;100411.84;4944324;28;102115;-69
2023/02/05 10:20:50;;;;;;;;;12.67;10.67;;;;;-4.77;82.16;100415.94;4950567;28;103741;-68
2023/02/05 10:23:53;;;;;;;;;16.67;10.00;;;;;-4.83;80.50;100424.13;4955081;28;104207;-69
2023/02/05 10:26:27;;;;;;;;;10.00;9.33;;;;;-4.87;80.42;100419.03;4951168;28;102334;-69
2023/02/05 10:29:23;;;;;;;;;11.33;10.00;;;;;-4.80;79.86;100423.97;4955085;28;102171;-69
2023/02/05 10:32:15;;;;;;;;;14.67;9.33;;;;;-4.80;79.16;100416.06;4953659;28;103327;-68
2023/02/05 10:34:58;;;;;;;;;12.33;12.00;;;;;-4.76;78.55;100416.81;4948023;28;108626;-70
2023/02/05 10:37:34;;;;;;;;;12.00;12.00;;;;;-4.76;77.48;100415.03;4955502;28;105328;-70
2023/02/05 10:40:15;;;;;;;;;13.00;13.00;;;;;-4.74;75.35;100397.38;4948055;28;102341;-67
2023/02/05 10:42:53;;;;;;;;;12.00;8.33;;;;;-4.68;73.80;100405.00;4952555;28;101926;-68
2023/02/05 10:45:25;;;;;;;;;12.67;7.33;;;;;-4.84;71.66;100401.28;4961948;28;104017;-68
2023/02/05 10:48:41;;;;;;;;;9.33;7.00;;;;;-4.63;72.68;100410.09;4940045;28;102038;-68
2023/02/05 10:51:15;;;;;;;;;7.67;7.67;;;;;-4.73;73.69;100407.00;4922739;28;103188;-68
2023/02/05 10:53:42;;;;;;;;;9.00;9.00;;;;;-4.60;71.92;100410.88;4957423;28;102219;-68
2023/02/05 10:56:16;;;;;;;;;9.00;6.33;;;;;-4.46;72.37;100390.97;4952495;28;104040;-68
2023/02/05 10:58:59;;;;;;;;;9.67;9.00;;;;;-4.20;71.98;100398.66;4953021;28;102351;-67
2023/02/05 11:01:32;;;;;;;;;9.67;9.00;;;;;-4.23;71.76;100390.84;4950792;28;102172;-71
2023/02/05 11:04:04;;;;;;;;;7.00;7.00;;;;;-4.14;73.54;100398.38;4958158;28;102473;-70
2023/02/05 11:06:38;;;;;;;;;12.33;9.33;;;;;-4.38;72.21;100397.66;4952841;28;104145;-68
2023/02/05 11:09:34;;;;;;;;;11.67;10.00;;;;;-4.27;73.76;100387.47;4954512;28;106153;-69
2023/02/05 11:12:05;;;;;;;;;8.67;6.00;;;;;-4.32;73.69;100356.94;4944184;28;102322;-69
2023/02/05 11:14:42;;;;;;;;;12.67;9.33;;;;;-4.16;73.38;100369.41;4953046;28;102367;-69
2023/02/05 11:17:15;;;;;;;;;13.00;6.33;;;;;-3.75;74.66;100386.13;4946717;28;104107;-68
2023/02/05 11:19:58;;;;;;;;;9.00;7.00;;;;;-3.68;72.59;100376.97;4953197;28;102673;-69
2023/02/05 11:22:30;;;;;;;;;10.00;7.00;;;;;-3.69;73.71;100379.66;4954313;28;102453;-68
2023/02/05 11:25:04;;;;;;;;;10.00;7.67;;;;;-3.72;72.20;100380.69;4954353;28;102359;-70
2023/02/05 11:27:33;;;;;;;;;5.67;5.00;;;;;-3.48;72.85;100378.72;4942662;28;103565;-69
2023/02/05 11:30:19;;;;;;;;;11.00;8.33;;;;;-3.20;71.79;100383.63;4955601;28;103365;-69
2023/02/05 11:33:23;;;;;;;;;11.00;8.67;;;;;-3.67;76.14;100394.56;4948465;28;102400;-69
2023/02/05 11:35:57;;;;;;;;;15.33;12.67;;;;;-4.09;78.43;100381.41;4946016;28;102428;-68
2023/02/05 11:38:43;;;;;;;;;10.33;9.00;;;;;-4.15;79.31;100386.97;4944930;28;108552;-69